createdAt,value
2022-08-09T00:00:00.417Z,102426.64
2022-08-09T00:00:57.269Z,102428.80
2022-08-09T00:01:57.968Z,102428.46
2022-08-09T00:02:58.297Z,102427.86
2022-08-09T00:04:06.346Z,102427.61
2022-08-09T00:05:03.437Z,102427.48
2022-08-09T00:06:19.655Z,102426.93
2022-08-09T00:06:59.346Z,102426.77
2022-08-09T00:08:00.063Z,102426.90
2022-08-09T00:09:00.502Z,102426.91
2022-08-09T00:10:01.722Z,102426.61
2022-08-09T00:11:05.813Z,102426.02
2022-08-09T00:12:03.473Z,102425.28
2022-08-09T00:13:01.659Z,102424.60
2022-08-09T00:14:01.788Z,102424.91
2022-08-09T00:15:06.967Z,102424.53
2022-08-09T00:16:02.399Z,102424.66
2022-08-09T00:17:02.037Z,102423.84
2022-08-09T00:18:04.686Z,102424.07
2022-08-09T00:19:02.779Z,102423.61
2022-08-09T00:20:03.584Z,102423.14
2022-08-09T00:21:03.670Z,102423.28
2022-08-09T00:22:04.293Z,102423.50
2022-08-09T00:23:08.353Z,102423.37
2022-08-09T00:24:04.871Z,102423.17
2022-08-09T00:25:08.421Z,102423.09
2022-08-09T00:26:05.531Z,102422.55
2022-08-09T00:27:06.296Z,102422.30
2022-08-09T00:28:06.419Z,102421.89
2022-08-09T00:29:12.174Z,102422.11
2022-08-09T00:30:23.566Z,102421.69
2022-08-09T00:30:25.983Z,102425.90
2022-08-09T00:31:58.111Z,102414.62
2022-08-09T00:32:25.679Z,102414.55
2022-08-09T00:33:16.853Z,102415.49
2022-08-09T00:34:19.336Z,102415.92
2022-08-09T00:35:17.806Z,102416.61
2022-08-09T00:36:19.132Z,102416.95
2022-08-09T00:37:18.334Z,102416.81
2022-08-09T00:38:21.441Z,102417.17
2022-08-09T00:40:13.967Z,102418.48
2022-08-09T00:40:19.856Z,102418.58
2022-08-09T00:44:16.790Z,102419.34
2022-08-09T00:44:26.076Z,102419.83
2022-08-09T00:44:27.112Z,102420.02
2022-08-09T00:44:27.351Z,102419.85
2022-08-09T00:45:21.716Z,102420.25
2022-08-09T00:46:55.226Z,102420.22
2022-08-09T00:47:24.947Z,102419.84
2022-08-09T00:48:22.979Z,102419.56
2022-08-09T00:49:23.295Z,102419.48
2022-08-09T00:50:25.215Z,102420.05
2022-08-09T00:51:24.559Z,102420.06
2022-08-09T00:52:30.225Z,102419.55
2022-08-09T00:53:25.289Z,102419.73
2022-08-09T00:54:35.159Z,102419.14
2022-08-09T00:56:04.120Z,102419.35
2022-08-09T00:56:26.192Z,102419.23
2022-08-09T00:57:34.874Z,102418.98
2022-08-09T00:58:27.809Z,102418.55
2022-08-09T00:59:41.253Z,102426.74
2022-08-09T00:59:41.649Z,102418.94
2022-08-09T01:00:35.852Z,102422.34
2022-08-09T01:01:44.669Z,102422.52
2022-08-09T01:02:36.822Z,102422.13
2022-08-09T01:03:40.673Z,102422.65
2022-08-09T01:04:37.835Z,102422.44
2022-08-09T01:05:50.672Z,102422.73
2022-08-09T01:06:54.215Z,102423.84
2022-08-09T01:08:00.639Z,102423.94
2022-08-09T01:08:38.870Z,102424.20
2022-08-09T01:09:39.149Z,102424.23
2022-08-09T01:10:39.193Z,102424.70
2022-08-09T01:11:40.150Z,102425.27
2022-08-09T01:12:40.292Z,102424.72
2022-08-09T01:13:41.934Z,102425.09
2022-08-09T01:14:40.364Z,102424.71
2022-08-09T01:15:52.256Z,102424.08
2022-08-09T01:16:40.869Z,102424.17
2022-08-09T01:17:40.944Z,102423.70
2022-08-09T01:18:41.006Z,102423.02
2022-08-09T01:19:51.640Z,102422.64
2022-08-09T01:20:41.393Z,102422.30
2022-08-09T01:21:45.027Z,102421.96
2022-08-09T01:22:41.643Z,102421.80
2022-08-09T01:24:03.632Z,102421.20
2022-08-09T01:24:44.049Z,102421.28
2022-08-09T01:25:49.024Z,102420.91
2022-08-09T01:26:43.778Z,102420.02
2022-08-09T01:27:44.678Z,102419.98
2022-08-09T01:28:45.465Z,102419.34
2022-08-09T01:29:55.730Z,102419.09
2022-08-09T01:30:52.119Z,102418.84
2022-08-09T01:30:54.853Z,102414.91
2022-08-09T01:32:29.924Z,102416.23
2022-08-09T01:32:55.807Z,102416.23
2022-08-09T01:33:55.732Z,102416.40
2022-08-09T01:34:57.638Z,102416.23
2022-08-09T01:35:59.197Z,102416.11
2022-08-09T01:36:58.223Z,102415.98
2022-08-09T01:38:07.935Z,102416.20
2022-08-09T01:38:59.381Z,102416.53
2022-08-09T01:39:59.514Z,102417.00
2022-08-09T01:41:02.941Z,102417.27
2022-08-09T01:42:04.086Z,102417.25
2022-08-09T01:43:01.598Z,102417.98
2022-08-09T01:44:01.818Z,102418.37
2022-08-09T01:45:03.508Z,102418.58
2022-08-09T01:46:02.741Z,102418.53
2022-08-09T01:47:03.327Z,102418.62
2022-08-09T01:48:05.892Z,102418.50
2022-08-09T01:49:09.521Z,102418.80
2022-08-09T01:50:06.495Z,102418.41
2022-08-09T01:51:04.362Z,102418.50
2022-08-09T01:52:07.540Z,102419.01
2022-08-09T01:53:19.349Z,102419.01
2022-08-09T01:54:06.056Z,102419.27
2022-08-09T01:55:08.045Z,102419.05
2022-08-09T01:56:07.239Z,102419.98
2022-08-09T01:57:08.086Z,102419.86
2022-08-09T01:58:07.917Z,102419.98
2022-08-09T01:59:08.752Z,102420.25
2022-08-09T01:59:18.568Z,102428.47
2022-08-09T02:00:35.939Z,102425.14
2022-08-09T02:01:19.618Z,102424.88
2022-08-09T02:02:19.811Z,102424.20
2022-08-09T02:03:19.953Z,102424.33
2022-08-09T02:04:21.524Z,102424.20
2022-08-09T02:05:20.830Z,102424.03
2022-08-09T02:06:21.745Z,102424.12
2022-08-09T02:08:39.063Z,102423.81
2022-08-09T02:08:39.296Z,102423.73
2022-08-09T02:09:23.094Z,102423.85
2022-08-09T02:10:29.687Z,102423.86
2022-08-09T02:11:24.084Z,102423.78
2022-08-09T02:12:25.515Z,102424.06
2022-08-09T02:13:26.226Z,102424.33
2022-08-09T02:14:26.677Z,102424.37
2022-08-09T02:15:26.977Z,102423.77
2022-08-09T02:16:33.857Z,102424.31
2022-08-09T02:17:59.499Z,102424.11
2022-08-09T02:18:27.663Z,102424.62
2022-08-09T02:19:34.933Z,102424.41
2022-08-09T02:20:32.851Z,102424.28
2022-08-09T02:21:29.289Z,102424.48
2022-08-09T02:22:31.717Z,102424.78
2022-08-09T02:23:31.868Z,102424.83
2022-08-09T02:24:30.784Z,102425.21
2022-08-09T02:25:31.466Z,102425.59
2022-08-09T02:26:32.319Z,102425.50
2022-08-09T02:27:58.227Z,102425.63
2022-08-09T02:28:32.780Z,102426.19
2022-08-09T02:28:41.368Z,102430.34
2022-08-09T02:29:41.646Z,102436.04
2022-08-09T02:30:41.744Z,102435.56
2022-08-09T02:31:42.258Z,102434.88
2022-08-09T02:32:43.068Z,102434.63
2022-08-09T02:34:06.789Z,102434.33
2022-08-09T02:34:51.740Z,102433.94
2022-08-09T02:36:02.072Z,102433.44
2022-08-09T02:36:44.549Z,102432.88
2022-08-09T02:37:46.437Z,102432.91
2022-08-09T02:38:47.814Z,102432.88
2022-08-09T02:39:49.876Z,102432.23
2022-08-09T02:40:46.469Z,102432.09
2022-08-09T02:41:46.679Z,102432.05
2022-08-09T02:42:51.248Z,102431.70
2022-08-09T02:43:54.859Z,102431.66
2022-08-09T02:44:47.844Z,102431.75
2022-08-09T02:45:49.197Z,102431.39
2022-08-09T02:46:52.305Z,102431.78
2022-08-09T02:47:58.853Z,102432.38
2022-08-09T02:48:51.093Z,102432.41
2022-08-09T02:50:01.255Z,102432.74
2022-08-09T02:50:53.083Z,102433.21
2022-08-09T02:51:50.216Z,102433.67
2022-08-09T02:52:55.303Z,102434.70
2022-08-09T02:53:59.697Z,102435.16
2022-08-09T02:54:54.819Z,102435.63
2022-08-09T02:55:58.403Z,102435.84
2022-08-09T02:56:53.995Z,102435.59
2022-08-09T02:57:02.112Z,102451.09
2022-08-09T02:58:32.815Z,102438.77
2022-08-09T02:59:03.376Z,102438.59
2022-08-09T03:00:24.779Z,102438.68
2022-08-09T03:01:04.396Z,102438.94
2022-08-09T03:02:06.810Z,102439.22
2022-08-09T03:03:04.455Z,102439.23
2022-08-09T03:04:18.425Z,102439.31
2022-08-09T03:05:05.735Z,102439.66
2022-08-09T03:06:05.929Z,102439.02
2022-08-09T03:07:12.399Z,102439.22
2022-08-09T03:08:06.662Z,102439.91
2022-08-09T03:09:06.963Z,102440.62
2022-08-09T03:10:08.054Z,102441.05
2022-08-09T03:11:10.226Z,102441.04
2022-08-09T03:12:11.323Z,102440.91
2022-08-09T03:13:08.607Z,102441.16
2022-08-09T03:14:08.449Z,102441.06
2022-08-09T03:15:09.160Z,102441.02
2022-08-09T03:16:09.922Z,102441.43
2022-08-09T03:17:20.495Z,102441.81
2022-08-09T03:18:10.837Z,102441.42
2022-08-09T03:19:14.348Z,102441.38
2022-08-09T03:20:11.859Z,102441.41
2022-08-09T03:21:12.146Z,102441.62
2022-08-09T03:22:19.759Z,102441.57
2022-08-09T03:23:15.139Z,102441.44
2022-08-09T03:24:14.095Z,102441.48
2022-08-09T03:25:26.487Z,102442.20
2022-08-09T03:26:15.089Z,102442.19
2022-08-09T03:27:17.201Z,102442.39
2022-08-09T03:28:16.368Z,102442.52
2022-08-09T03:28:28.099Z,102450.23
2022-08-09T03:29:28.631Z,102444.38
2022-08-09T03:30:33.499Z,102444.30
2022-08-09T03:31:29.010Z,102444.04
2022-08-09T03:32:29.849Z,102443.27
2022-08-09T03:33:53.281Z,102443.02
2022-08-09T03:34:30.905Z,102442.80
2022-08-09T03:36:11.465Z,102442.71
2022-08-09T03:36:34.890Z,102442.20
2022-08-09T03:37:54.377Z,102442.16
2022-08-09T03:38:33.551Z,102442.02
2022-08-09T03:39:37.792Z,102441.97
2022-08-09T03:40:34.838Z,102441.88
2022-08-09T03:41:48.318Z,102442.77
2022-08-09T03:42:35.099Z,102443.45
2022-08-09T03:43:36.567Z,102443.32
2022-08-09T03:44:35.635Z,102443.41
2022-08-09T03:46:04.087Z,102443.61
2022-08-09T03:46:36.083Z,102444.13
2022-08-09T03:47:41.859Z,102444.55
2022-08-09T03:48:36.643Z,102445.02
2022-08-09T03:49:36.961Z,102445.36
2022-08-09T03:50:37.725Z,102446.08
2022-08-09T03:51:43.960Z,102446.84
2022-08-09T03:52:38.612Z,102447.02
2022-08-09T03:53:38.668Z,102447.57
2022-08-09T03:54:39.005Z,102448.54
2022-08-09T03:55:42.443Z,102449.17
2022-08-09T03:56:41.246Z,102449.98
2022-08-09T03:57:44.481Z,102450.27
2022-08-09T03:58:41.242Z,102451.38
2022-08-09T03:59:53.005Z,102452.66
2022-08-09T04:00:42.129Z,102453.63
2022-08-09T04:00:50.795Z,102467.56
2022-08-09T04:01:51.305Z,102460.66
2022-08-09T04:02:52.859Z,102460.66
2022-08-09T04:04:01.221Z,102461.30
2022-08-09T04:04:52.669Z,102461.39
2022-08-09T04:05:52.913Z,102461.73
2022-08-09T04:06:53.701Z,102462.62
2022-08-09T04:07:57.318Z,102463.23
2022-08-09T04:08:55.356Z,102463.91
2022-08-09T04:09:56.836Z,102465.01
2022-08-09T04:11:01.323Z,102465.52
2022-08-09T04:11:56.943Z,102465.86
2022-08-09T04:12:57.770Z,102466.20
2022-08-09T04:14:53.021Z,102466.88
2022-08-09T04:15:02.075Z,102467.65
2022-08-09T04:16:20.293Z,102467.98
2022-08-09T04:16:58.681Z,102468.67
2022-08-09T04:17:59.689Z,102469.44
2022-08-09T04:18:59.763Z,102470.12
2022-08-09T04:20:02.618Z,102470.63
2022-08-09T04:20:59.716Z,102471.39
2022-08-09T04:21:59.845Z,102472.33
2022-08-09T04:23:02.047Z,102473.31
2022-08-09T04:24:00.433Z,102474.00
2022-08-09T04:25:03.049Z,102474.81
2022-08-09T04:26:01.462Z,102476.01
2022-08-09T04:27:01.721Z,102477.20
2022-08-09T04:28:03.757Z,102478.09
2022-08-09T04:28:14.955Z,102493.86
2022-08-09T04:29:15.261Z,102491.37
2022-08-09T04:30:15.427Z,102491.09
2022-08-09T04:31:17.012Z,102491.34
2022-08-09T04:32:16.513Z,102491.34
2022-08-09T04:33:16.553Z,102491.31
2022-08-09T04:34:19.022Z,102490.80
2022-08-09T04:35:17.852Z,102491.11
2022-08-09T04:36:19.364Z,102490.90
2022-08-09T04:37:18.518Z,102490.98
2022-08-09T04:38:18.635Z,102491.20
2022-08-09T04:39:19.144Z,102491.42
2022-08-09T04:40:35.903Z,102491.98
2022-08-09T04:41:23.675Z,102492.00
2022-08-09T04:42:21.244Z,102492.91
2022-08-09T04:43:20.386Z,102492.70
2022-08-09T04:44:20.947Z,102493.77
2022-08-09T04:45:22.799Z,102494.33
2022-08-09T04:46:56.833Z,102494.98
2022-08-09T04:47:22.350Z,102496.00
2022-08-09T04:48:33.363Z,102496.56
2022-08-09T04:49:40.149Z,102497.80
2022-08-09T04:50:24.040Z,102497.94
2022-08-09T04:51:24.111Z,102499.30
2022-08-09T04:52:26.378Z,102500.03
2022-08-09T04:53:24.931Z,102500.84
2022-08-09T04:54:25.328Z,102501.66
2022-08-09T04:55:27.089Z,102503.38
2022-08-09T04:56:26.445Z,102504.28
2022-08-09T04:56:35.129Z,102523.28
2022-08-09T04:57:59.411Z,102519.95
2022-08-09T04:58:36.100Z,102519.86
2022-08-09T04:59:37.204Z,102520.09
2022-08-09T05:00:37.444Z,102520.51
2022-08-09T05:01:38.070Z,102520.77
2022-08-09T05:02:38.436Z,102520.80
2022-08-09T05:03:42.838Z,102520.80
2022-08-09T05:04:38.660Z,102520.80
2022-08-09T05:05:52.250Z,102520.72
2022-08-09T05:06:38.897Z,102521.48
2022-08-09T05:07:39.040Z,102521.60
2022-08-09T05:08:39.295Z,102521.77
2022-08-09T05:09:48.764Z,102522.84
2022-08-09T05:10:39.777Z,102523.53
2022-08-09T05:11:40.049Z,102524.03
2022-08-09T05:12:40.391Z,102524.97
2022-08-09T05:13:41.769Z,102525.89
2022-08-09T05:14:41.392Z,102526.77
2022-08-09T05:15:43.190Z,102527.32
2022-08-09T05:16:43.502Z,102527.41
2022-08-09T05:18:38.008Z,102527.91
2022-08-09T05:18:58.662Z,102528.36
2022-08-09T05:19:45.876Z,102528.67
2022-08-09T05:20:42.527Z,102529.21
2022-08-09T05:21:46.963Z,102529.31
2022-08-09T05:23:53.934Z,102529.35
2022-08-09T05:23:55.003Z,102529.50
2022-08-09T05:24:47.684Z,102529.87
2022-08-09T05:25:46.054Z,102529.58
2022-08-09T05:25:56.873Z,102529.43
2022-08-09T05:26:56.457Z,102523.90
2022-08-09T05:27:57.686Z,102524.19
2022-08-09T05:28:58.661Z,102524.23
2022-08-09T05:29:57.849Z,102524.41
2022-08-09T05:30:58.273Z,102524.84
2022-08-09T05:31:59.165Z,102525.55
2022-08-09T05:32:59.149Z,102525.73
2022-08-09T05:34:00.612Z,102525.60
2022-08-09T05:35:00.789Z,102526.08
2022-08-09T05:36:00.913Z,102526.69
2022-08-09T05:37:01.839Z,102527.23
2022-08-09T05:38:00.715Z,102527.54
2022-08-09T05:39:01.282Z,102528.11
2022-08-09T05:40:01.368Z,102528.73
2022-08-09T05:41:01.912Z,102529.77
2022-08-09T05:42:04.695Z,102530.55
2022-08-09T05:43:02.035Z,102531.39
2022-08-09T05:44:02.152Z,102531.95
2022-08-09T05:45:02.613Z,102532.45
2022-08-09T05:46:03.985Z,102532.66
2022-08-09T05:47:05.044Z,102533.41
2022-08-09T05:48:04.001Z,102534.19
2022-08-09T05:49:04.100Z,102534.70
2022-08-09T05:50:24.021Z,102535.31
2022-08-09T05:51:29.836Z,102535.88
2022-08-09T05:52:05.639Z,102536.77
2022-08-09T05:52:14.286Z,102548.63
2022-08-09T05:53:32.525Z,102544.73
2022-08-09T05:54:15.181Z,102544.34
2022-08-09T05:55:21.032Z,102543.67
2022-08-09T05:56:16.250Z,102543.58
2022-08-09T05:57:17.561Z,102543.68
2022-08-09T05:58:18.315Z,102543.53
2022-08-09T05:59:17.573Z,102543.46
2022-08-09T06:00:19.469Z,102543.37
2022-08-09T06:01:19.169Z,102543.11
2022-08-09T06:02:19.662Z,102543.24
2022-08-09T06:03:20.676Z,102543.77
2022-08-09T06:04:23.286Z,102543.29
2022-08-09T06:05:30.958Z,102543.15
2022-08-09T06:06:21.646Z,102542.97
2022-08-09T06:07:22.257Z,102542.84
2022-08-09T06:08:24.741Z,102543.02
2022-08-09T06:09:53.999Z,102542.77
2022-08-09T06:10:24.364Z,102542.89
2022-08-09T06:11:41.013Z,102542.93
2022-08-09T06:12:26.275Z,102542.84
2022-08-09T06:13:25.468Z,102542.84
2022-08-09T06:14:25.683Z,102542.25
2022-08-09T06:15:27.337Z,102542.02
2022-08-09T06:16:26.459Z,102542.14
2022-08-09T06:17:26.946Z,102541.40
2022-08-09T06:18:27.886Z,102541.09
2022-08-09T06:19:29.779Z,102540.97
2022-08-09T06:20:29.251Z,102540.25
2022-08-09T06:20:38.978Z,102542.73
2022-08-09T06:21:50.268Z,102535.52
2022-08-09T06:22:39.671Z,102535.39
2022-08-09T06:23:55.296Z,102535.42
2022-08-09T06:24:39.919Z,102535.19
2022-08-09T06:25:40.008Z,102534.94
2022-08-09T06:26:40.511Z,102534.59
2022-08-09T06:27:42.217Z,102535.13
2022-08-09T06:28:43.461Z,102534.91
2022-08-09T06:29:58.349Z,102534.97
2022-08-09T06:30:43.356Z,102534.84
2022-08-09T06:32:08.653Z,102535.46
2022-08-09T06:32:53.063Z,102535.89
2022-08-09T06:33:53.111Z,102536.05
2022-08-09T06:34:44.240Z,102536.05
2022-08-09T06:35:57.110Z,102536.08
2022-08-09T06:36:45.289Z,102535.97
2022-08-09T06:37:52.971Z,102536.11
2022-08-09T06:38:49.930Z,102536.64
2022-08-09T06:39:58.347Z,102536.45
2022-08-09T06:40:47.725Z,102536.24
2022-08-09T06:42:08.896Z,102535.70
2022-08-09T06:42:48.527Z,102535.58
2022-08-09T06:43:49.108Z,102535.52
2022-08-09T06:44:51.854Z,102535.13
2022-08-09T06:46:07.092Z,102534.70
2022-08-09T06:46:50.095Z,102534.23
2022-08-09T06:48:00.672Z,102533.73
2022-08-09T06:48:50.502Z,102533.66
2022-08-09T06:50:13.689Z,102533.55
2022-08-09T06:50:13.814Z,102530.37
2022-08-09T06:51:00.274Z,102535.45
2022-08-09T06:52:00.556Z,102535.02
2022-08-09T06:53:01.975Z,102535.03
2022-08-09T06:54:02.322Z,102534.84
2022-08-09T06:55:01.398Z,102535.20
2022-08-09T06:56:01.601Z,102535.77
2022-08-09T06:57:01.818Z,102535.98
2022-08-09T06:58:04.436Z,102536.20
2022-08-09T07:00:50.663Z,102536.48
2022-08-09T07:00:53.059Z,102536.05
2022-08-09T07:01:03.198Z,102536.23
2022-08-09T07:02:04.994Z,102536.08
2022-08-09T07:03:06.160Z,102536.31
2022-08-09T07:04:04.670Z,102536.44
2022-08-09T07:05:05.246Z,102536.18
2022-08-09T07:06:05.850Z,102536.03
2022-08-09T07:07:07.664Z,102536.17
2022-08-09T07:08:06.849Z,102535.91
2022-08-09T07:09:07.498Z,102535.34
2022-08-09T07:10:22.467Z,102534.48
2022-08-09T07:11:08.463Z,102534.44
2022-08-09T07:12:17.552Z,102533.89
2022-08-09T07:13:27.380Z,102533.45
2022-08-09T07:14:09.799Z,102533.52
2022-08-09T07:16:35.098Z,102533.08
2022-08-09T07:16:41.668Z,102532.72
2022-08-09T07:17:12.188Z,102532.55
2022-08-09T07:17:22.340Z,102540.97
2022-08-09T07:18:23.599Z,102532.27
2022-08-09T07:19:23.869Z,102532.44
2022-08-09T07:20:23.721Z,102532.44
2022-08-09T07:21:24.025Z,102532.30
2022-08-09T07:22:34.735Z,102532.47
2022-08-09T07:23:25.325Z,102532.58
2022-08-09T07:24:32.730Z,102532.82
2022-08-09T07:25:26.092Z,102533.30
2022-08-09T07:26:26.937Z,102533.06
2022-08-09T07:27:34.051Z,102533.83
2022-08-09T07:28:28.844Z,102534.28
2022-08-09T07:29:37.750Z,102534.28
2022-08-09T07:30:32.806Z,102533.66
2022-08-09T07:31:29.272Z,102533.28
2022-08-09T07:32:31.984Z,102533.24
2022-08-09T07:33:30.928Z,102533.00
2022-08-09T07:34:31.062Z,102532.90
2022-08-09T07:35:32.056Z,102532.44
2022-08-09T07:36:32.726Z,102532.44
2022-08-09T07:37:44.242Z,102531.84
2022-08-09T07:38:33.525Z,102531.95
2022-08-09T07:39:41.378Z,102531.98
2022-08-09T07:40:54.162Z,102531.84
2022-08-09T07:41:38.834Z,102531.25
2022-08-09T07:42:35.953Z,102531.66
2022-08-09T07:43:41.094Z,102531.13
2022-08-09T07:44:51.996Z,102531.05
2022-08-09T07:45:40.582Z,102531.64
2022-08-09T07:46:38.731Z,102531.60
2022-08-09T07:47:49.257Z,102531.81
2022-08-09T07:48:01.453Z,102523.53
2022-08-09T07:48:52.884Z,102519.27
2022-08-09T07:50:04.572Z,102519.37
2022-08-09T07:50:53.114Z,102519.30
2022-08-09T07:52:04.564Z,102519.93
2022-08-09T07:52:50.949Z,102520.38
2022-08-09T07:54:07.711Z,102520.80
2022-08-09T07:54:51.962Z,102521.29
2022-08-09T07:56:03.341Z,102521.22
2022-08-09T07:56:53.352Z,102521.98
2022-08-09T07:57:54.339Z,102521.53
2022-08-09T07:58:54.781Z,102521.50
2022-08-09T08:00:02.880Z,102521.56
2022-08-09T08:01:06.426Z,102521.38
2022-08-09T08:01:56.784Z,102521.14
2022-08-09T08:02:57.549Z,102521.56
2022-08-09T08:03:57.531Z,102522.30
2022-08-09T08:04:58.034Z,102522.97
2022-08-09T08:05:58.972Z,102522.69
2022-08-09T08:07:00.082Z,102522.73
2022-08-09T08:08:43.575Z,102522.86
2022-08-09T08:09:07.771Z,102522.94
2022-08-09T08:10:07.938Z,102522.65
2022-08-09T08:11:03.357Z,102523.38
2022-08-09T08:12:11.149Z,102524.11
2022-08-09T08:13:03.855Z,102524.03
2022-08-09T08:14:04.754Z,102523.96
2022-08-09T08:15:03.637Z,102524.16
2022-08-09T08:16:03.896Z,102524.20
2022-08-09T08:17:08.672Z,102524.31
2022-08-09T08:18:05.357Z,102524.66
2022-08-09T08:18:16.614Z,102527.88
2022-08-09T08:19:17.508Z,102523.45
2022-08-09T08:20:17.381Z,102523.29
2022-08-09T08:21:18.138Z,102523.27
2022-08-09T08:22:18.710Z,102522.91
2022-08-09T08:23:19.105Z,102522.70
2022-08-09T08:24:19.965Z,102522.59
2022-08-09T08:25:20.199Z,102522.19
2022-08-09T08:26:41.676Z,102522.10
2022-08-09T08:27:21.325Z,102522.27
2022-08-09T08:28:31.803Z,102522.00
2022-08-09T08:29:28.206Z,102521.60
2022-08-09T08:30:22.492Z,102522.03
2022-08-09T08:31:24.566Z,102521.97
2022-08-09T08:32:29.179Z,102521.98
2022-08-09T08:33:24.239Z,102522.23
2022-08-09T08:34:25.657Z,102521.83
2022-08-09T08:35:23.913Z,102521.89
2022-08-09T08:36:29.276Z,102521.70
2022-08-09T08:37:25.659Z,102521.77
2022-08-09T08:38:25.807Z,102521.73
2022-08-09T08:39:26.663Z,102521.45
2022-08-09T08:40:29.641Z,102521.13
2022-08-09T08:41:50.557Z,102521.38
2022-08-09T08:42:32.055Z,102520.85
2022-08-09T08:43:29.006Z,102520.30
2022-08-09T08:44:29.861Z,102519.66
2022-08-09T08:45:36.827Z,102519.20
2022-08-09T08:46:33.634Z,102518.13
2022-08-09T08:47:32.089Z,102516.95
2022-08-09T08:47:42.614Z,102508.34
2022-08-09T08:48:51.533Z,102504.80
2022-08-09T08:49:48.501Z,102505.11
2022-08-09T08:50:42.056Z,102504.87
2022-08-09T08:52:01.936Z,102504.99
2022-08-09T08:53:00.452Z,102504.80
2022-08-09T08:54:03.304Z,102504.78
2022-08-09T08:54:43.550Z,102505.33
2022-08-09T08:55:44.414Z,102505.30
2022-08-09T08:56:45.991Z,102505.38
2022-08-09T08:57:57.189Z,102505.50
2022-08-09T08:58:46.633Z,102505.20
2022-08-09T08:59:47.308Z,102504.83
2022-08-09T09:00:46.553Z,102504.75
2022-08-09T09:01:52.227Z,102504.87
2022-08-09T09:02:52.393Z,102504.64
2022-08-09T09:03:50.392Z,102504.28
2022-08-09T09:04:53.033Z,102504.08
2022-08-09T09:05:59.089Z,102503.91
2022-08-09T09:06:50.660Z,102504.28
2022-08-09T09:07:51.505Z,102504.42
2022-08-09T09:08:02.784Z,102498.16
2022-08-09T09:09:06.712Z,102504.83
2022-08-09T09:10:04.925Z,102505.09
2022-08-09T09:11:04.409Z,102505.16
2022-08-09T09:12:08.862Z,102504.87
2022-08-09T09:13:09.533Z,102504.67
2022-08-09T09:14:05.779Z,102504.94
2022-08-09T09:15:06.427Z,102505.44
2022-08-09T09:16:07.043Z,102506.29
2022-08-09T09:17:06.034Z,102506.41
2022-08-09T09:18:06.948Z,102506.38
2022-08-09T09:19:39.632Z,102506.63
2022-08-09T09:21:53.816Z,102506.98
2022-08-09T09:22:54.492Z,102507.00
2022-08-09T09:23:58.433Z,102506.83
2022-08-09T09:26:01.105Z,102506.55
2022-08-09T09:26:02.377Z,102506.98
2022-08-09T09:26:57.145Z,102506.31
2022-08-09T09:28:05.361Z,102506.09
2022-08-09T09:29:03.702Z,102505.91
2022-08-09T09:30:11.968Z,102505.88
2022-08-09T09:30:58.284Z,102506.29
2022-08-09T09:32:04.645Z,102506.23
2022-08-09T09:32:58.678Z,102506.23
2022-08-09T09:33:59.224Z,102505.63
2022-08-09T09:35:00.453Z,102505.85
2022-08-09T09:36:01.948Z,102505.85
2022-08-09T09:36:59.714Z,102505.50
2022-08-09T09:37:08.857Z,102500.35
2022-08-09T09:38:08.793Z,102501.79
2022-08-09T09:39:09.975Z,102502.13
2022-08-09T09:40:10.044Z,102501.81
2022-08-09T09:41:10.801Z,102501.70
2022-08-09T09:42:10.950Z,102501.96
2022-08-09T09:43:11.106Z,102501.31
2022-08-09T09:44:15.479Z,102501.13
2022-08-09T09:45:14.391Z,102500.80
2022-08-09T09:47:12.509Z,102500.44
2022-08-09T09:48:12.597Z,102499.66
2022-08-09T09:49:12.732Z,102499.26
2022-08-09T09:50:17.293Z,102498.79
2022-08-09T09:51:18.834Z,102497.92
2022-08-09T09:52:35.676Z,102497.46
2022-08-09T09:53:14.344Z,102496.94
2022-08-09T09:54:42.459Z,102485.20
2022-08-09T09:55:43.093Z,102485.20
2022-08-09T09:56:53.366Z,102484.95
2022-08-09T09:58:01.333Z,102484.52
2022-08-09T09:58:45.033Z,102484.95
2022-08-09T09:59:45.578Z,102484.68
2022-08-09T10:00:53.012Z,102485.34
2022-08-09T10:01:47.371Z,102485.72
2022-08-09T10:02:46.150Z,102486.23
2022-08-09T10:03:56.275Z,102486.30
2022-08-09T10:04:47.646Z,102486.22
2022-08-09T10:06:03.647Z,102486.56
2022-08-09T10:06:51.785Z,102485.79
2022-08-09T10:08:11.088Z,102486.13
2022-08-09T10:08:57.235Z,102486.94
2022-08-09T10:09:55.054Z,102487.02
2022-08-09T10:10:50.542Z,102486.25
2022-08-09T10:12:07.701Z,102486.53
2022-08-09T10:12:52.061Z,102486.45
2022-08-09T10:13:51.744Z,102486.25
2022-08-09T10:14:52.468Z,102486.23
2022-08-09T10:16:54.643Z,102486.08
2022-08-09T10:16:57.835Z,102485.61
2022-08-09T10:17:56.582Z,102485.11
2022-08-09T10:18:54.718Z,102484.33
2022-08-09T10:19:57.090Z,102483.66
2022-08-09T10:20:57.118Z,102483.30
2022-08-09T10:21:57.930Z,102483.05
2022-08-09T10:22:07.597Z,102476.38
2022-08-09T10:23:08.297Z,102478.66
2022-08-09T10:24:08.895Z,102477.54
2022-08-09T10:25:12.419Z,102477.37
2022-08-09T10:26:10.552Z,102476.38
2022-08-09T10:27:17.253Z,102476.39
2022-08-09T10:28:11.089Z,102475.63
2022-08-09T10:29:35.974Z,102475.28
2022-08-09T10:31:31.720Z,102475.08
2022-08-09T10:32:38.043Z,102473.95
2022-08-09T10:33:44.845Z,102472.98
2022-08-09T10:34:32.902Z,102472.20
2022-08-09T10:35:14.693Z,102471.94
2022-08-09T10:36:15.446Z,102470.91
2022-08-09T10:37:15.451Z,102470.37
2022-08-09T10:38:54.261Z,102469.31
2022-08-09T10:39:19.162Z,102468.71
2022-08-09T10:40:34.704Z,102467.41
2022-08-09T10:41:17.819Z,102466.95
2022-08-09T10:42:53.382Z,102459.94
2022-08-09T10:43:59.211Z,102453.02
2022-08-09T10:44:53.946Z,102451.95
2022-08-09T10:45:59.859Z,102451.31
2022-08-09T10:47:00.527Z,102451.50
2022-08-09T10:48:26.292Z,102451.02
2022-08-09T10:48:56.097Z,102450.39
2022-08-09T10:49:57.200Z,102450.32
2022-08-09T10:50:56.532Z,102449.52
2022-08-09T10:51:57.368Z,102449.80
2022-08-09T10:52:58.231Z,102449.23
2022-08-09T10:53:58.307Z,102448.75
2022-08-09T10:54:59.171Z,102448.44
2022-08-09T10:56:00.183Z,102447.44
2022-08-09T10:56:59.994Z,102446.87
2022-08-09T10:58:00.737Z,102446.27
2022-08-09T10:58:16.787Z,102443.59
2022-08-09T10:59:12.533Z,102435.56
2022-08-09T11:00:12.702Z,102435.56
2022-08-09T11:03:13.711Z,102435.61
2022-08-09T11:03:15.188Z,102435.92
2022-08-09T11:03:51.203Z,102436.28
2022-08-09T11:04:27.817Z,102436.08
2022-08-09T11:05:25.499Z,102435.45
2022-08-09T11:06:17.742Z,102435.47
2022-08-09T11:07:19.596Z,102435.38
2022-08-09T11:08:30.238Z,102434.61
2022-08-09T11:09:20.965Z,102434.84
2022-08-09T11:10:19.995Z,102434.15
2022-08-09T11:11:20.613Z,102433.30
2022-08-09T11:12:20.806Z,102432.70
2022-08-09T11:13:51.106Z,102432.25
2022-08-09T11:14:28.276Z,102432.36
2022-08-09T11:15:24.031Z,102431.48